Akeley, Minnesota
Current Conditions -  °F | °C
As of 4:35 PM on Saturday 25 Oct 2014 (Local Time) from KY49 Reporting Station
Clear Clear  
Wind Chill: 55°   Ceiling: Unl
Heat Index: 55°   Visibility: 10mi
Dew Point: 24°   Wind: 17mph
Humidity: 30%   Direction: 290°WNW
Pressure: 30.02"   Gusts: NA
Location:  47°N, 94.73°W
Report Text: KY49 252135Z AUTO 29015KT 10SM CLR 13/M04 A3002 RMK AO2 T01301044
Loading
Personal Weather Stations






























Interactive Weather Map
Tropical Storm Tracking
New forecast layout! Learn more

10-Day Weather Forecast

Advertisements
Track Severe Weather on mobile